Sawbridgeworth, United Kingdom
Current Conditions -  °F | °C
As of 1:20 PM on Friday 24 Oct 2014 (Local Time) from EGSS Reporting Station
Overcast Overcast  
Wind Chill: 61°   Ceiling: 2000
Heat Index: 61°   Visibility: 6mi
Dew Point: 57°   Wind: 9mph
Humidity: 88%   Direction: 230°SW
Pressure: 29.94"   Gusts: NA
Location:  51.8°N, 0.14°E
Report Text: EGSS 241220Z 23008KT 9999 SCT011 OVC020 16/14 Q1014
Loading
Personal Weather Stations






























Interactive Weather Map New forecast layout! Learn more

10-Day Weather Forecast

Advertisements
Track Severe Weather on mobile